Time;durP1;ratioP1;P1;durP2;ratioP2;P2;SDS_P1;SDS_P2;PMS_P1;PMS_P2;Temp;Humidity;BMP_temperature;BMP_pressure;BME280_temperature;BME280_humidity;BME280_pressure;Samples;Min_cycle;Max_cycle;Signal;HPM_P1;HPM_P2
2022/10/22 00:05:07;;;;;;;;;;;14.30;99.90;;;;;;12559908;28;19929;-39
2022/10/22 00:11:13;;;;;;;;;;;14.10;99.90;;;;;;12545947;28;19929;-39
2022/10/22 00:17:16;;;;;;;;;;;14.10;99.90;;;;;;12556112;28;19928;-40
2022/10/22 00:23:17;;;;;;;;;;;14.10;99.90;;;;;;12545801;28;19939;-38
2022/10/22 00:29:19;;;;;;;;;;;14.10;99.90;;;;;;12560068;28;20050;-39
2022/10/22 00:35:21;;;;;;;;;;;14.10;99.90;;;;;;12563946;28;19924;-39
2022/10/22 00:41:23;;;;;;;;;;;14.00;99.90;;;;;;12554817;28;19947;-39
2022/10/22 00:47:27;;;;;;;;;;;13.90;99.90;;;;;;12540588;28;20281;-40
2022/10/22 00:53:31;;;;;;;;;;;13.80;99.90;;;;;;12545645;28;19931;-39
2022/10/22 00:59:33;;;;;;;;;;;13.70;99.90;;;;;;12545961;28;19973;-39
2022/10/22 01:05:40;;;;;;;;;;;13.70;99.90;;;;;;12566842;28;20019;-40
2022/10/22 01:12:00;;;;;;;;;;;13.60;99.90;;;;;;12552024;28;19929;-39
2022/10/22 01:18:08;;;;;;;;;;;13.60;99.90;;;;;;12537240;28;19986;-38
2022/10/22 01:24:18;;;;;;;;;;;13.70;99.90;;;;;;12544978;28;19924;-39
2022/10/22 01:30:21;;;;;;;;;;;13.80;99.90;;;;;;12543106;28;19925;-39
2022/10/22 01:36:22;;;;;;;;;;;13.90;99.90;;;;;;12549704;28;19929;-39
2022/10/22 01:42:24;;;;;;;;;;;13.90;99.90;;;;;;12556756;28;20016;-39
2022/10/22 01:48:29;;;;;;;;;;;13.90;99.90;;;;;;12533797;28;20017;-38
2022/10/22 01:54:37;;;;;;;;;;;13.90;99.90;;;;;;12538738;28;19940;-39
2022/10/22 02:00:43;;;;;;;;;;;13.80;99.90;;;;;;12545142;28;19925;-38
2022/10/22 02:06:46;;;;;;;;;;;13.80;99.90;;;;;;12546271;28;19924;-39
2022/10/22 02:12:49;;;;;;;;;;;13.80;99.90;;;;;;12545769;28;20027;-38
2022/10/22 02:18:52;;;;;;;;;;;13.70;99.90;;;;;;12521829;28;19932;-39
2022/10/22 02:24:55;;;;;;;;;;;13.80;99.90;;;;;;12548840;28;19947;-39
2022/10/22 02:31:00;;;;;;;;;;;13.80;99.90;;;;;;12553737;28;20300;-39
2022/10/22 02:37:03;;;;;;;;;;;13.80;99.90;;;;;;12551091;28;19925;-39
2022/10/22 02:43:05;;;;;;;;;;;13.70;99.90;;;;;;12547112;28;20037;-39
2022/10/22 02:49:06;;;;;;;;;;;13.50;99.90;;;;;;12538881;28;20385;-39
2022/10/22 02:55:09;;;;;;;;;;;13.40;99.90;;;;;;12545797;28;19928;-39
2022/10/22 03:01:10;;;;;;;;;;;13.40;99.90;;;;;;12531691;28;19925;-39
2022/10/22 03:07:16;;;;;;;;;;;13.30;99.90;;;;;;12557544;28;19935;-39
2022/10/22 03:13:18;;;;;;;;;;;13.30;99.90;;;;;;12554699;28;20070;-38
2022/10/22 03:19:20;;;;;;;;;;;13.30;99.90;;;;;;12554134;28;19929;-39
2022/10/22 03:25:24;;;;;;;;;;;13.20;99.90;;;;;;12555896;28;19931;-39
2022/10/22 03:31:25;;;;;;;;;;;13.10;99.90;;;;;;12563324;28;20360;-38
2022/10/22 03:37:27;;;;;;;;;;;13.10;99.90;;;;;;12558781;28;19930;-39
2022/10/22 03:43:29;;;;;;;;;;;13.00;99.90;;;;;;12545125;28;19935;-38
2022/10/22 03:49:31;;;;;;;;;;;13.10;99.90;;;;;;12551460;28;19924;-39
2022/10/22 03:55:32;;;;;;;;;;;13.20;99.90;;;;;;12540235;28;19933;-39
2022/10/22 04:01:35;;;;;;;;;;;13.40;99.90;;;;;;12557981;28;20300;-39
2022/10/22 04:07:37;;;;;;;;;;;13.50;99.90;;;;;;12555466;28;19929;-39
2022/10/22 04:13:39;;;;;;;;;;;13.50;99.90;;;;;;12556790;28;19955;-39
2022/10/22 04:19:41;;;;;;;;;;;13.40;99.90;;;;;;12568588;28;19928;-38
2022/10/22 04:25:43;;;;;;;;;;;13.40;99.90;;;;;;12551135;28;19947;-38
2022/10/22 04:31:44;;;;;;;;;;;13.30;99.90;;;;;;12561490;28;19932;-38
2022/10/22 04:37:46;;;;;;;;;;;13.00;99.90;;;;;;12541904;28;19924;-39
2022/10/22 04:43:48;;;;;;;;;;;13.00;99.90;;;;;;12552241;28;20501;-38
2022/10/22 04:49:51;;;;;;;;;;;13.00;99.90;;;;;;12556404;28;19973;-39
2022/10/22 04:55:52;;;;;;;;;;;12.90;99.90;;;;;;12557123;28;20312;-39
2022/10/22 05:01:54;;;;;;;;;;;12.90;99.90;;;;;;12556893;28;19925;-38
2022/10/22 05:07:56;;;;;;;;;;;12.80;99.90;;;;;;12542842;28;19925;-39
2022/10/22 05:13:59;;;;;;;;;;;12.80;99.90;;;;;;12562153;28;20408;-38
2022/10/22 05:20:00;;;;;;;;;;;13.10;99.90;;;;;;12558240;28;19924;-40
2022/10/22 05:26:03;;;;;;;;;;;13.10;99.90;;;;;;12549931;28;20367;-38
2022/10/22 05:32:05;;;;;;;;;;;13.20;99.90;;;;;;12538079;28;19928;-40
2022/10/22 05:38:06;;;;;;;;;;;13.20;99.90;;;;;;12553829;28;19924;-38
2022/10/22 05:44:10;;;;;;;;;;;13.30;99.90;;;;;;12548698;28;19978;-40
2022/10/22 05:50:12;;;;;;;;;;;13.20;99.90;;;;;;12548923;28;20326;-39
2022/10/22 05:56:14;;;;;;;;;;;13.30;99.90;;;;;;12562987;28;20011;-39
2022/10/22 06:02:16;;;;;;;;;;;13.30;99.90;;;;;;12549806;28;19928;-38
2022/10/22 06:08:18;;;;;;;;;;;13.40;99.90;;;;;;12551542;28;19960;-38
2022/10/22 06:14:20;;;;;;;;;;;13.20;99.90;;;;;;12544078;28;20316;-40
2022/10/22 06:20:22;;;;;;;;;;;12.60;99.90;;;;;;12550683;28;20304;-38
2022/10/22 06:26:24;;;;;;;;;;;12.30;99.90;;;;;;12550746;28;19932;-39
2022/10/22 06:32:26;;;;;;;;;;;12.40;99.90;;;;;;12537000;28;20038;-39
2022/10/22 06:38:28;;;;;;;;;;;12.60;99.90;;;;;;12531265;28;19929;-39
2022/10/22 06:44:30;;;;;;;;;;;12.80;99.90;;;;;;12539387;28;19924;-40
2022/10/22 06:50:34;;;;;;;;;;;12.90;99.90;;;;;;12561183;28;19929;-38
2022/10/22 06:56:36;;;;;;;;;;;13.10;99.90;;;;;;12558129;28;19935;-39
2022/10/22 07:02:38;;;;;;;;;;;13.30;99.90;;;;;;12557644;28;19932;-39
2022/10/22 07:08:41;;;;;;;;;;;13.40;99.90;;;;;;12565244;28;20359;-39
2022/10/22 07:14:43;;;;;;;;;;;13.70;99.90;;;;;;12565118;28;19925;-39
2022/10/22 07:20:46;;;;;;;;;;;13.50;99.90;;;;;;12556178;28;19935;-39
2022/10/22 07:26:48;;;;;;;;;;;13.60;99.90;;;;;;12554493;28;19924;-39
2022/10/22 07:32:49;;;;;;;;;;;13.70;99.90;;;;;;12549702;28;20396;-39
2022/10/22 07:38:55;;;;;;;;;;;13.90;99.90;;;;;;12555702;28;19924;-39
2022/10/22 07:44:57;;;;;;;;;;;14.00;99.90;;;;;;12544617;28;20368;-39
2022/10/22 07:50:59;;;;;;;;;;;14.10;99.90;;;;;;12561321;28;19935;-39
2022/10/22 07:57:00;;;;;;;;;;;14.00;99.90;;;;;;12550201;28;20011;-38
2022/10/22 08:03:02;;;;;;;;;;;14.20;99.90;;;;;;12562299;28;19925;-39
2022/10/22 08:09:04;;;;;;;;;;;14.40;99.90;;;;;;12550497;28;19936;-39
2022/10/22 08:15:07;;;;;;;;;;;14.70;99.90;;;;;;12543900;28;20408;-38
2022/10/22 08:21:09;;;;;;;;;;;15.00;99.90;;;;;;12552685;28;19928;-39
2022/10/22 08:27:12;;;;;;;;;;;15.20;99.90;;;;;;12548597;28;19932;-38
2022/10/22 08:33:14;;;;;;;;;;;15.30;99.90;;;;;;12523325;28;832360;-39
2022/10/22 08:39:15;;;;;;;;;;;15.40;99.90;;;;;;12544920;28;19974;-40
2022/10/22 08:45:21;;;;;;;;;;;15.60;99.90;;;;;;12551337;28;19940;-39
2022/10/22 08:51:24;;;;;;;;;;;15.80;99.90;;;;;;12532112;28;19932;-39
2022/10/22 08:57:49;;;;;;;;;;;15.90;99.90;;;;;;12543309;28;20019;-39
2022/10/22 09:04:24;;;;;;;;;;;16.10;99.90;;;;;;12544101;28;19952;-38
2022/10/22 09:10:28;;;;;;;;;;;16.30;99.90;;;;;;12523482;28;20022;-39
2022/10/22 09:16:38;;;;;;;;;;;16.50;99.90;;;;;;12554577;28;19925;-40
2022/10/22 09:22:56;;;;;;;;;;;16.50;99.90;;;;;;12553097;28;19928;-39
2022/10/22 09:28:59;;;;;;;;;;;16.60;99.90;;;;;;12528636;28;20394;-39
2022/10/22 09:35:00;;;;;;;;;;;16.60;99.90;;;;;;12552046;28;19929;-39
2022/10/22 09:41:03;;;;;;;;;;;16.50;99.90;;;;;;12539655;28;19925;-39
2022/10/22 09:47:07;;;;;;;;;;;16.60;99.90;;;;;;12552301;28;19924;-39
2022/10/22 09:53:16;;;;;;;;;;;16.80;99.90;;;;;;12542975;28;19924;-40
2022/10/22 09:59:18;;;;;;;;;;;16.70;99.90;;;;;;12547382;28;20381;-39
2022/10/22 10:05:24;;;;;;;;;;;16.70;99.90;;;;;;12553952;28;19932;-39
2022/10/22 10:11:28;;;;;;;;;;;16.70;99.90;;;;;;12544338;28;20384;-39
2022/10/22 10:17:42;;;;;;;;;;;16.70;99.90;;;;;;12554236;28;20407;-39
2022/10/22 10:23:44;;;;;;;;;;;16.60;99.90;;;;;;12547992;28;19925;-38
2022/10/22 10:29:59;;;;;;;;;;;16.60;99.90;;;;;;12549043;28;19947;-39
2022/10/22 10:36:05;;;;;;;;;;;16.90;99.90;;;;;;12544247;28;19925;-39
2022/10/22 10:42:14;;;;;;;;;;;17.20;99.90;;;;;;12533010;28;20400;-39
2022/10/22 10:48:16;;;;;;;;;;;17.70;99.90;;;;;;12543289;28;19924;-39
2022/10/22 10:54:26;;;;;;;;;;;17.80;99.90;;;;;;12547986;28;20434;-39
2022/10/22 11:00:29;;;;;;;;;;;17.70;99.90;;;;;;12546492;28;20285;-39
2022/10/22 11:06:32;;;;;;;;;;;17.60;99.90;;;;;;12556666;28;19932;-39
2022/10/22 11:12:37;;;;;;;;;;;17.60;99.90;;;;;;12539457;28;19924;-39
2022/10/22 11:18:46;;;;;;;;;;;17.50;99.90;;;;;;12545363;28;20376;-38
2022/10/22 11:24:52;;;;;;;;;;;17.30;99.90;;;;;;12547296;28;19924;-39
2022/10/22 11:31:00;;;;;;;;;;;17.40;99.90;;;;;;12559370;28;19924;-39
2022/10/22 11:37:03;;;;;;;;;;;17.20;99.90;;;;;;12554004;28;19970;-39
2022/10/22 11:43:06;;;;;;;;;;;17.20;99.90;;;;;;12555350;28;19933;-39
2022/10/22 11:49:14;;;;;;;;;;;17.10;99.90;;;;;;12548497;28;19925;-39
2022/10/22 11:55:31;;;;;;;;;;;17.20;99.90;;;;;;12557154;28;19924;-39
2022/10/22 12:01:42;;;;;;;;;;;17.20;99.90;;;;;;12534711;28;19935;-39
2022/10/22 12:07:49;;;;;;;;;;;17.20;99.90;;;;;;12544420;28;19951;-39
2022/10/22 12:13:57;;;;;;;;;;;17.30;99.90;;;;;;12554396;28;19924;-40
2022/10/22 12:20:06;;;;;;;;;;;17.30;99.90;;;;;;12548827;28;20069;-39
2022/10/22 12:26:21;;;;;;;;;;;17.60;99.90;;;;;;12557783;28;20404;-39
2022/10/22 12:32:28;;;;;;;;;;;17.90;99.90;;;;;;12543766;28;19932;-39
2022/10/22 12:38:30;;;;;;;;;;;18.00;99.90;;;;;;12551363;28;20392;-39
2022/10/22 12:44:31;;;;;;;;;;;17.70;99.90;;;;;;12550633;28;19928;-39
2022/10/22 12:50:37;;;;;;;;;;;17.40;99.90;;;;;;12546526;28;19931;-39
2022/10/22 12:56:38;;;;;;;;;;;17.00;99.90;;;;;;12551816;28;19925;-39
2022/10/22 13:02:42;;;;;;;;;;;16.80;99.90;;;;;;12548871;28;19989;-39
2022/10/22 13:08:53;;;;;;;;;;;16.70;99.90;;;;;;12552883;28;19928;-39
2022/10/22 13:14:55;;;;;;;;;;;16.60;99.90;;;;;;12552816;28;19980;-39
2022/10/22 13:21:00;;;;;;;;;;;16.60;99.90;;;;;;12544859;28;19925;-38
2022/10/22 13:27:02;;;;;;;;;;;16.90;99.90;;;;;;12542725;28;19929;-39
2022/10/22 13:33:05;;;;;;;;;;;17.00;99.90;;;;;;12548930;28;20361;-39
2022/10/22 13:39:11;;;;;;;;;;;16.90;99.90;;;;;;12548287;28;20296;-39
2022/10/22 13:45:13;;;;;;;;;;;16.80;99.90;;;;;;12534081;28;20358;-39
2022/10/22 13:51:17;;;;;;;;;;;16.70;99.90;;;;;;12548738;28;19925;-38
2022/10/22 13:57:19;;;;;;;;;;;16.50;99.90;;;;;;12548821;28;19925;-39
2022/10/22 14:03:23;;;;;;;;;;;16.40;99.90;;;;;;12539109;28;19936;-39
2022/10/22 14:09:25;;;;;;;;;;;16.50;99.90;;;;;;12559842;28;19936;-39
2022/10/22 14:15:27;;;;;;;;;;;16.40;99.90;;;;;;12542812;28;19932;-40
2022/10/22 14:21:32;;;;;;;;;;;16.30;99.90;;;;;;12540282;28;20444;-40
2022/10/22 14:27:34;;;;;;;;;;;16.20;99.90;;;;;;12542429;28;19932;-39
2022/10/22 14:33:36;;;;;;;;;;;16.10;99.90;;;;;;12556827;28;20399;-39
2022/10/22 14:39:38;;;;;;;;;;;15.90;99.90;;;;;;12550887;28;19952;-39
2022/10/22 14:45:40;;;;;;;;;;;15.70;99.90;;;;;;12537219;28;19933;-39
2022/10/22 14:51:42;;;;;;;;;;;15.50;99.90;;;;;;12546643;28;20396;-39
2022/10/22 14:57:44;;;;;;;;;;;15.40;99.90;;;;;;12551527;28;19932;-40
2022/10/22 15:03:46;;;;;;;;;;;15.20;99.90;;;;;;12553175;28;19996;-38
2022/10/22 15:09:48;;;;;;;;;;;15.20;99.90;;;;;;12549218;28;19925;-39
2022/10/22 15:15:49;;;;;;;;;;;15.20;99.90;;;;;;12546807;28;19932;-39
2022/10/22 15:21:51;;;;;;;;;;;15.20;99.90;;;;;;12562756;28;19932;-39
2022/10/22 15:27:53;;;;;;;;;;;15.20;99.90;;;;;;12548523;28;20291;-38
2022/10/22 15:34:05;;;;;;;;;;;15.20;99.90;;;;;;12549445;28;19952;-38
2022/10/22 15:40:07;;;;;;;;;;;15.30;99.90;;;;;;12552841;28;19925;-38
2022/10/22 15:46:17;;;;;;;;;;;15.30;99.90;;;;;;12513531;28;19924;-39
2022/10/22 15:52:20;;;;;;;;;;;15.30;99.90;;;;;;12544398;28;20349;-38
2022/10/22 15:58:22;;;;;;;;;;;15.20;99.90;;;;;;12556196;28;19924;-39
2022/10/22 16:04:23;;;;;;;;;;;15.30;99.90;;;;;;12552069;28;19929;-39
2022/10/22 16:10:26;;;;;;;;;;;15.20;99.90;;;;;;12545956;28;19936;-39
2022/10/22 16:16:29;;;;;;;;;;;15.20;99.90;;;;;;12551719;28;19932;-39
2022/10/22 16:22:32;;;;;;;;;;;15.20;99.90;;;;;;12548063;28;20046;-38
2022/10/22 16:28:34;;;;;;;;;;;15.00;99.90;;;;;;12552557;28;19924;-39
2022/10/22 16:34:35;;;;;;;;;;;15.00;99.90;;;;;;12560266;28;19929;-39
2022/10/22 16:40:37;;;;;;;;;;;15.00;99.90;;;;;;12564947;28;20293;-39
2022/10/22 16:46:39;;;;;;;;;;;15.00;99.90;;;;;;12548729;28;20365;-38
2022/10/22 16:52:41;;;;;;;;;;;14.90;99.90;;;;;;12559585;28;19940;-39
2022/10/22 16:58:44;;;;;;;;;;;14.90;99.90;;;;;;12547781;28;19935;-38
2022/10/22 17:04:46;;;;;;;;;;;14.80;99.90;;;;;;12549104;28;19978;-39
2022/10/22 17:10:48;;;;;;;;;;;14.80;99.90;;;;;;12550060;28;19929;-38
2022/10/22 17:16:52;;;;;;;;;;;14.70;99.90;;;;;;12539514;28;19933;-40
2022/10/22 17:22:54;;;;;;;;;;;14.60;99.90;;;;;;12552485;28;20066;-39
2022/10/22 17:28:56;;;;;;;;;;;14.50;99.90;;;;;;12555047;28;19924;-39
2022/10/22 17:34:58;;;;;;;;;;;14.50;99.90;;;;;;12550737;28;19929;-38
2022/10/22 17:40:59;;;;;;;;;;;14.40;99.90;;;;;;12540737;28;19925;-38
2022/10/22 17:47:05;;;;;;;;;;;14.20;99.90;;;;;;12555448;28;19932;-39
2022/10/22 17:53:06;;;;;;;;;;;14.20;99.90;;;;;;12543782;28;20392;-39
2022/10/22 17:59:10;;;;;;;;;;;14.20;99.90;;;;;;12536425;28;19924;-39
2022/10/22 18:05:12;;;;;;;;;;;14.20;99.90;;;;;;12554220;28;19931;-38
2022/10/22 18:11:18;;;;;;;;;;;14.10;99.90;;;;;;12546279;28;20277;-39
2022/10/22 18:17:19;;;;;;;;;;;14.10;99.90;;;;;;12551478;28;20328;-38
2022/10/22 18:23:21;;;;;;;;;;;14.20;99.90;;;;;;12545025;28;19928;-39
2022/10/22 18:29:23;;;;;;;;;;;14.10;99.90;;;;;;12546214;28;20296;-39
2022/10/22 18:35:25;;;;;;;;;;;14.10;99.90;;;;;;12559747;28;19925;-39
2022/10/22 18:41:28;;;;;;;;;;;14.00;99.90;;;;;;12562667;28;19983;-39
2022/10/22 18:47:30;;;;;;;;;;;13.90;99.90;;;;;;12559591;28;20077;-39
2022/10/22 18:53:32;;;;;;;;;;;13.90;99.90;;;;;;12566874;28;20395;-39
2022/10/22 18:59:34;;;;;;;;;;;13.90;99.90;;;;;;12562240;28;19932;-39
2022/10/22 19:05:49;;;;;;;;;;;13.80;99.90;;;;;;12543061;28;19978;-39
2022/10/22 19:11:51;;;;;;;;;;;13.80;99.90;;;;;;12560623;28;19998;-39
2022/10/22 19:17:53;;;;;;;;;;;13.70;99.90;;;;;;12554789;28;19925;-39
2022/10/22 19:23:58;;;;;;;;;;;13.70;99.90;;;;;;12560650;28;19925;-39
2022/10/22 19:29:59;;;;;;;;;;;13.70;99.90;;;;;;12556925;28;19925;-39
2022/10/22 19:36:09;;;;;;;;;;;13.70;99.90;;;;;;12560490;28;19936;-39
2022/10/22 19:42:11;;;;;;;;;;;13.60;99.90;;;;;;12549629;28;19940;-38
2022/10/22 19:48:12;;;;;;;;;;;13.60;99.90;;;;;;12559093;28;19925;-38
2022/10/22 19:54:17;;;;;;;;;;;13.60;99.90;;;;;;12556199;28;19996;-38
2022/10/22 20:00:19;;;;;;;;;;;13.60;99.90;;;;;;12557753;28;19925;-38
2022/10/22 20:06:20;;;;;;;;;;;13.50;99.90;;;;;;12557117;28;19932;-38
2022/10/22 20:12:22;;;;;;;;;;;13.50;99.90;;;;;;12552455;28;19977;-39
2022/10/22 20:18:24;;;;;;;;;;;13.50;99.90;;;;;;12564291;28;19931;-39
2022/10/22 20:24:26;;;;;;;;;;;13.60;99.90;;;;;;12555522;28;19936;-38
2022/10/22 20:30:28;;;;;;;;;;;13.50;99.90;;;;;;12552157;28;19963;-39
2022/10/22 20:36:30;;;;;;;;;;;13.60;99.90;;;;;;12554083;28;19935;-38
2022/10/22 20:42:33;;;;;;;;;;;13.50;99.90;;;;;;12558822;28;19929;-38
2022/10/22 20:48:36;;;;;;;;;;;13.50;99.90;;;;;;12556352;28;19928;-38
2022/10/22 20:54:41;;;;;;;;;;;13.40;99.90;;;;;;12548507;28;20281;-38
2022/10/22 21:00:43;;;;;;;;;;;13.40;99.90;;;;;;12554521;28;19933;-38
2022/10/22 21:06:47;;;;;;;;;;;13.40;99.90;;;;;;12564631;28;19925;-39
2022/10/22 21:12:49;;;;;;;;;;;13.30;99.90;;;;;;12550603;28;20277;-38
2022/10/22 21:18:50;;;;;;;;;;;13.20;99.90;;;;;;12549556;28;20351;-39
2022/10/22 21:24:52;;;;;;;;;;;13.20;99.90;;;;;;12551106;28;19935;-38
2022/10/22 21:30:54;;;;;;;;;;;13.10;99.90;;;;;;12550623;28;20027;-39
2022/10/22 21:36:56;;;;;;;;;;;13.20;99.90;;;;;;12547065;28;19925;-38
2022/10/22 21:42:58;;;;;;;;;;;13.10;99.90;;;;;;12543502;28;19925;-39
2022/10/22 21:49:00;;;;;;;;;;;13.10;99.90;;;;;;12555268;28;20274;-39
2022/10/22 21:55:02;;;;;;;;;;;13.20;99.90;;;;;;12547466;28;19935;-39
2022/10/22 22:01:04;;;;;;;;;;;13.20;99.90;;;;;;12544941;28;19932;-39
2022/10/22 22:07:06;;;;;;;;;;;13.20;99.90;;;;;;12547891;28;19948;-38
2022/10/22 22:13:08;;;;;;;;;;;13.20;99.90;;;;;;12549771;28;19931;-39
2022/10/22 22:19:10;;;;;;;;;;;13.20;99.90;;;;;;12549519;28;20074;-38
2022/10/22 22:25:12;;;;;;;;;;;13.20;99.90;;;;;;12553391;28;20007;-39
2022/10/22 22:31:25;;;;;;;;;;;13.10;99.90;;;;;;12549176;28;19947;-38
2022/10/22 22:37:26;;;;;;;;;;;13.10;99.90;;;;;;12547080;28;19924;-39
2022/10/22 22:43:28;;;;;;;;;;;13.10;99.90;;;;;;12549366;28;19925;-38
2022/10/22 22:49:30;;;;;;;;;;;13.00;99.90;;;;;;12544060;28;19932;-39
2022/10/22 22:55:32;;;;;;;;;;;13.10;99.90;;;;;;12539971;28;19935;-39
2022/10/22 23:01:35;;;;;;;;;;;13.20;99.90;;;;;;12550459;28;19924;-39
2022/10/22 23:07:37;;;;;;;;;;;13.40;99.90;;;;;;12544354;28;19964;-38
2022/10/22 23:13:39;;;;;;;;;;;13.20;99.90;;;;;;12543026;28;20357;-39
2022/10/22 23:19:41;;;;;;;;;;;13.10;99.90;;;;;;12546476;28;19924;-38
2022/10/22 23:25:43;;;;;;;;;;;13.00;99.90;;;;;;12545456;28;19933;-38
2022/10/22 23:31:46;;;;;;;;;;;12.90;99.90;;;;;;12568708;28;19925;-38
2022/10/22 23:37:48;;;;;;;;;;;12.70;99.90;;;;;;12563002;28;19935;-38
2022/10/22 23:43:50;;;;;;;;;;;12.60;99.90;;;;;;12562084;28;19972;-39
2022/10/22 23:49:52;;;;;;;;;;;12.50;99.90;;;;;;12548102;28;19935;-38
2022/10/22 23:55:53;;;;;;;;;;;12.30;99.90;;;;;;12542774;28;19933;-39
